createdAt,value
2022-09-18T00:01:31.885Z,12.04
2022-09-18T00:04:01.642Z,11.96
2022-09-18T00:06:31.482Z,12.01
2022-09-18T00:09:00.028Z,12.07
2022-09-18T00:11:29.196Z,12.12
2022-09-18T00:13:56.154Z,11.94
2022-09-18T00:16:26.207Z,11.92
2022-09-18T00:18:53.410Z,11.83
2022-09-18T00:21:24.505Z,11.78
2022-09-18T00:23:56.741Z,11.73
2022-09-18T00:26:25.801Z,11.80
2022-09-18T00:28:53.585Z,11.74
2022-09-18T00:31:26.373Z,11.79
2022-09-18T00:33:53.862Z,11.93
2022-09-18T00:36:22.922Z,11.91
2022-09-18T00:38:49.939Z,11.79
2022-09-18T00:41:24.678Z,11.67
2022-09-18T00:43:59.533Z,11.70
2022-09-18T00:46:36.256Z,11.63
2022-09-18T00:49:18.518Z,11.57
2022-09-18T00:51:47.986Z,11.37
2022-09-18T00:54:33.426Z,11.50
2022-09-18T00:57:05.557Z,11.38
2022-09-18T00:59:34.017Z,11.30
2022-09-18T01:02:01.353Z,11.40
2022-09-18T01:04:29.420Z,11.37
2022-09-18T01:07:14.132Z,11.36
2022-09-18T01:10:07.274Z,11.21
2022-09-18T01:12:42.711Z,11.42
2022-09-18T01:15:20.179Z,11.35
2022-09-18T01:18:08.242Z,11.53
2022-09-18T01:20:47.446Z,11.40
2022-09-18T01:23:21.485Z,11.29
2022-09-18T01:25:56.159Z,11.08
2022-09-18T01:28:39.525Z,10.98
2022-09-18T01:31:19.992Z,11.03
2022-09-18T01:33:51.033Z,10.96
2022-09-18T01:36:21.631Z,11.01
2022-09-18T01:39:14.087Z,11.04
2022-09-18T01:41:50.679Z,10.84
2022-09-18T01:44:23.272Z,10.70
2022-09-18T01:46:51.215Z,10.79
2022-09-18T01:49:26.047Z,10.70
2022-09-18T01:52:06.455Z,10.66
2022-09-18T01:54:38.214Z,10.58
2022-09-18T01:57:10.721Z,10.51
2022-09-18T02:00:02.453Z,10.44
2022-09-18T02:02:45.128Z,10.37
2022-09-18T02:05:19.117Z,10.25
2022-09-18T02:08:12.622Z,10.42
2022-09-18T02:10:45.145Z,10.42
2022-09-18T02:13:16.724Z,10.41
2022-09-18T02:15:45.686Z,10.51
2022-09-18T02:18:19.872Z,10.26
2022-09-18T02:20:47.388Z,10.27
2022-09-18T02:23:14.445Z,10.22
2022-09-18T02:25:51.473Z,10.18
2022-09-18T02:28:21.857Z,10.33
2022-09-18T02:30:48.656Z,10.29
2022-09-18T02:33:31.057Z,10.32
2022-09-18T02:36:15.697Z,10.31
2022-09-18T02:39:03.890Z,10.26
2022-09-18T02:41:48.656Z,10.42
2022-09-18T02:44:38.305Z,10.34
2022-09-18T02:47:29.705Z,10.33
2022-09-18T02:50:28.418Z,10.23
2022-09-18T02:53:04.118Z,10.22
2022-09-18T02:55:47.026Z,10.16
2022-09-18T02:58:25.096Z,9.93
2022-09-18T03:00:52.359Z,9.83
2022-09-18T03:03:18.827Z,10.01
2022-09-18T03:05:45.249Z,9.80
2022-09-18T03:08:12.190Z,9.69
2022-09-18T03:10:38.670Z,9.85
2022-09-18T03:13:05.104Z,9.88
2022-09-18T03:15:32.026Z,9.72
2022-09-18T03:17:58.472Z,9.83
2022-09-18T03:20:24.921Z,9.99
2022-09-18T03:22:51.342Z,9.81
2022-09-18T03:25:17.765Z,9.67
2022-09-18T03:27:44.178Z,9.92
2022-09-18T03:30:11.205Z,9.85
2022-09-18T03:32:37.660Z,9.75
2022-09-18T03:35:04.418Z,9.84
2022-09-18T03:37:30.853Z,9.75
2022-09-18T03:39:57.327Z,9.70
2022-09-18T03:42:23.809Z,9.68
2022-09-18T03:44:50.206Z,9.69
2022-09-18T03:47:16.677Z,9.56
2022-09-18T03:49:43.080Z,9.58
2022-09-18T03:52:09.487Z,9.60
2022-09-18T03:54:35.900Z,9.44
2022-09-18T03:57:02.374Z,9.43
2022-09-18T03:59:28.769Z,9.43
2022-09-18T04:01:55.322Z,9.45
2022-09-18T04:04:21.838Z,9.46
2022-09-18T04:06:48.243Z,9.30
2022-09-18T04:09:16.486Z,9.20
2022-09-18T04:11:43.233Z,9.29
2022-09-18T04:14:09.642Z,9.41
2022-09-18T04:16:36.157Z,9.37
2022-09-18T04:19:02.998Z,9.34
2022-09-18T04:21:29.497Z,9.42
2022-09-18T04:23:56.523Z,9.36
2022-09-18T04:26:26.279Z,9.41
2022-09-18T04:28:52.790Z,9.37
2022-09-18T04:31:19.494Z,9.33
2022-09-18T04:33:46.342Z,9.34
2022-09-18T04:36:12.755Z,9.21
2022-09-18T04:38:39.506Z,9.43
2022-09-18T04:41:06.064Z,9.48
2022-09-18T04:43:32.534Z,9.56
2022-09-18T04:45:59.002Z,9.40
2022-09-18T04:48:25.504Z,9.44
2022-09-18T04:50:52.057Z,9.30
2022-09-18T04:53:19.369Z,9.18
2022-09-18T04:55:47.204Z,9.26
2022-09-18T04:58:15.131Z,9.24
2022-09-18T05:00:42.125Z,9.29
2022-09-18T05:03:08.801Z,9.33
2022-09-18T05:05:36.091Z,9.23
2022-09-18T05:08:02.939Z,9.18
2022-09-18T05:10:29.589Z,9.13
2022-09-18T05:12:56.020Z,9.43
2022-09-18T05:15:22.907Z,9.28
2022-09-18T05:17:57.526Z,9.35
2022-09-18T05:20:23.941Z,9.06
2022-09-18T05:22:50.339Z,9.24
2022-09-18T05:25:16.881Z,9.17
2022-09-18T05:27:43.275Z,9.09
2022-09-18T05:30:10.296Z,9.36
2022-09-18T05:32:36.725Z,9.41
2022-09-18T05:35:03.320Z,9.59
2022-09-18T05:37:29.750Z,9.45
2022-09-18T05:39:56.507Z,9.32
2022-09-18T05:42:23.032Z,9.24
2022-09-18T05:44:49.449Z,9.33
2022-09-18T05:47:15.873Z,9.35
2022-09-18T05:49:42.285Z,9.58
2022-09-18T05:52:09.352Z,10.00
2022-09-18T05:54:36.474Z,10.29
2022-09-18T05:57:03.005Z,10.62
2022-09-18T05:59:29.428Z,10.94
2022-09-18T06:01:56.001Z,11.24
2022-09-18T06:04:22.525Z,11.52
2022-09-18T06:06:48.916Z,11.78
2022-09-18T06:09:15.382Z,12.06
2022-09-18T06:11:42.054Z,12.30
2022-09-18T06:14:08.993Z,12.40
2022-09-18T06:16:39.886Z,12.45
2022-09-18T06:19:08.644Z,12.66
2022-09-18T06:21:35.059Z,12.87
2022-09-18T06:24:01.667Z,13.05
2022-09-18T06:26:28.140Z,13.12
2022-09-18T06:28:54.586Z,13.23
2022-09-18T06:31:21.102Z,13.39
2022-09-18T06:33:48.679Z,13.43
2022-09-18T06:36:16.324Z,13.34
2022-09-18T06:38:43.893Z,13.59
2022-09-18T06:41:10.828Z,13.94
2022-09-18T06:43:38.749Z,13.99
2022-09-18T06:46:07.589Z,14.26
2022-09-18T06:48:34.247Z,14.59
2022-09-18T06:51:00.842Z,14.71
2022-09-18T06:53:27.492Z,14.95
2022-09-18T06:55:59.758Z,15.22
2022-09-18T06:58:26.244Z,15.59
2022-09-18T07:00:52.725Z,15.86
2022-09-18T07:03:19.259Z,15.92
2022-09-18T07:05:46.025Z,15.94
2022-09-18T07:08:13.574Z,16.25
2022-09-18T07:10:40.980Z,16.78
2022-09-18T07:13:07.524Z,17.20
2022-09-18T07:15:34.402Z,17.41
2022-09-18T07:18:02.868Z,17.27
2022-09-18T07:20:29.750Z,18.11
2022-09-18T07:22:58.747Z,18.30
2022-09-18T07:25:26.501Z,18.11
2022-09-18T07:27:53.109Z,18.39
2022-09-18T07:30:20.129Z,18.82
2022-09-18T07:32:46.857Z,18.74
2022-09-18T07:35:13.685Z,18.91
2022-09-18T07:37:40.152Z,18.77
2022-09-18T07:40:09.143Z,19.07
2022-09-18T07:42:36.429Z,19.49
2022-09-18T07:45:03.700Z,19.20
2022-09-18T07:47:30.193Z,19.78
2022-09-18T07:49:56.686Z,19.71
2022-09-18T07:52:23.295Z,19.98
2022-09-18T07:54:49.794Z,20.14
2022-09-18T07:57:16.403Z,20.25
2022-09-18T07:59:42.838Z,20.20
2022-09-18T08:02:11.163Z,20.38
2022-09-18T08:04:37.709Z,20.84
2022-09-18T08:07:04.502Z,20.86
2022-09-18T08:09:31.230Z,21.23
2022-09-18T08:11:58.391Z,22.40
2022-09-18T08:14:28.712Z,22.15
2022-09-18T08:16:55.856Z,22.10
2022-09-18T08:19:22.385Z,21.31
2022-09-18T08:21:49.410Z,20.83
2022-09-18T08:24:17.423Z,20.24
2022-09-18T08:26:44.200Z,20.29
2022-09-18T08:29:10.611Z,19.10
2022-09-18T08:31:37.112Z,19.87
2022-09-18T08:34:03.698Z,20.42
2022-09-18T08:36:30.126Z,21.35
2022-09-18T08:38:56.879Z,21.50
2022-09-18T08:41:32.110Z,21.56
2022-09-18T08:44:11.361Z,21.51
2022-09-18T08:46:43.224Z,21.98
2022-09-18T08:49:31.641Z,22.31
2022-09-18T08:52:04.528Z,21.99
2022-09-18T08:54:56.298Z,22.47
2022-09-18T08:57:32.990Z,23.17
2022-09-18T09:00:03.879Z,23.05
2022-09-18T09:02:49.265Z,22.84
2022-09-18T09:05:19.181Z,22.85
2022-09-18T09:08:03.063Z,23.38
2022-09-18T09:10:40.130Z,23.46
2022-09-18T09:13:28.222Z,24.85
2022-09-18T09:15:59.044Z,25.16
2022-09-18T09:18:38.490Z,25.15
2022-09-18T09:21:38.958Z,25.38
2022-09-18T09:24:21.095Z,25.45
2022-09-18T09:26:49.633Z,25.70
2022-09-18T09:29:30.295Z,25.60
2022-09-18T09:32:13.420Z,24.88
2022-09-18T09:34:44.495Z,25.13
2022-09-18T09:37:24.000Z,24.43
2022-09-18T09:40:05.825Z,24.42
2022-09-18T09:42:50.863Z,23.67
2022-09-18T09:45:47.348Z,24.01
2022-09-18T09:48:26.326Z,22.62
2022-09-18T09:51:30.258Z,22.50
2022-09-18T09:54:00.949Z,22.32
2022-09-18T09:57:08.811Z,23.59
2022-09-18T09:59:59.734Z,24.00
2022-09-18T10:03:09.333Z,23.71
2022-09-18T10:06:00.965Z,22.26
2022-09-18T10:08:44.455Z,23.82
2022-09-18T10:11:13.152Z,23.39
2022-09-18T10:13:48.780Z,22.17
2022-09-18T10:16:31.018Z,22.60
2022-09-18T10:18:59.667Z,22.72
2022-09-18T10:21:29.021Z,24.47
2022-09-18T10:24:09.388Z,24.23
2022-09-18T10:27:19.979Z,26.11
2022-09-18T10:29:46.519Z,23.99
2022-09-18T10:32:13.774Z,22.77
2022-09-18T10:34:48.529Z,22.97
2022-09-18T10:37:38.054Z,24.77
2022-09-18T10:40:07.858Z,25.07
2022-09-18T10:42:36.791Z,26.02
2022-09-18T10:45:20.838Z,26.05
2022-09-18T10:47:48.767Z,23.90
2022-09-18T10:50:15.140Z,23.36
2022-09-18T10:52:43.830Z,22.79
2022-09-18T10:55:21.688Z,23.22
2022-09-18T10:57:48.077Z,22.71
2022-09-18T11:00:20.507Z,21.55
2022-09-18T11:02:59.584Z,21.23
2022-09-18T11:05:51.414Z,22.50
2022-09-18T11:08:21.937Z,21.54
2022-09-18T11:10:51.063Z,21.49
2022-09-18T11:13:24.316Z,22.79
2022-09-18T11:15:55.453Z,22.55
2022-09-18T11:18:24.389Z,21.26
2022-09-18T11:20:52.545Z,21.68
2022-09-18T11:23:19.015Z,21.91
2022-09-18T11:25:47.087Z,22.81
2022-09-18T11:28:32.869Z,23.56
2022-09-18T11:31:21.383Z,25.66
2022-09-18T11:33:55.773Z,24.79
2022-09-18T11:36:26.383Z,25.31
2022-09-18T11:38:53.770Z,24.71
2022-09-18T11:41:35.373Z,24.65
2022-09-18T11:44:05.611Z,25.00
2022-09-18T11:47:13.414Z,27.49
2022-09-18T11:49:45.945Z,26.12
2022-09-18T11:52:22.347Z,26.00
2022-09-18T11:54:57.317Z,25.35
2022-09-18T11:57:37.623Z,24.33
2022-09-18T12:00:10.202Z,23.51
2022-09-18T12:02:56.508Z,24.47
2022-09-18T12:05:40.685Z,24.41
2022-09-18T12:08:17.761Z,24.04
2022-09-18T12:11:20.957Z,23.95
2022-09-18T12:14:18.452Z,25.57
2022-09-18T12:17:01.064Z,26.16
2022-09-18T12:19:36.891Z,26.25
2022-09-18T12:22:11.042Z,25.62
2022-09-18T12:24:37.457Z,26.22
2022-09-18T12:27:35.813Z,26.04
2022-09-18T12:30:16.696Z,25.24
2022-09-18T12:33:13.285Z,25.19
2022-09-18T12:36:06.114Z,25.00
2022-09-18T12:39:04.325Z,24.77
2022-09-18T12:41:58.274Z,25.60
2022-09-18T12:44:47.217Z,25.63
2022-09-18T12:47:46.202Z,26.15
2022-09-18T12:50:29.685Z,27.28
2022-09-18T12:53:10.330Z,26.77
2022-09-18T12:55:55.523Z,25.45
2022-09-18T12:58:36.432Z,24.93
2022-09-18T13:01:12.583Z,25.03
2022-09-18T13:03:41.935Z,25.29
2022-09-18T13:06:14.530Z,25.48
2022-09-18T13:08:56.199Z,24.80
2022-09-18T13:11:36.504Z,24.85
2022-09-18T13:14:10.060Z,24.90
2022-09-18T13:16:57.947Z,24.37
2022-09-18T13:19:32.767Z,25.00
2022-09-18T13:22:05.607Z,26.11
2022-09-18T13:24:36.743Z,25.14
2022-09-18T13:27:09.610Z,25.41
2022-09-18T13:29:45.475Z,25.15
2022-09-18T13:32:14.477Z,25.50
2022-09-18T13:34:49.624Z,25.46
2022-09-18T13:37:19.757Z,24.82
2022-09-18T13:40:09.205Z,23.94
2022-09-18T13:42:42.394Z,23.28
2022-09-18T13:45:27.081Z,23.14
2022-09-18T13:48:04.895Z,23.06
2022-09-18T13:50:34.057Z,22.46
2022-09-18T13:53:02.195Z,22.38
2022-09-18T13:55:36.225Z,21.85
2022-09-18T13:58:30.654Z,21.55
2022-09-18T14:01:02.305Z,21.41
2022-09-18T14:03:28.774Z,21.04
2022-09-18T14:05:55.291Z,20.58
2022-09-18T14:08:22.363Z,20.54
2022-09-18T14:11:11.419Z,20.66
2022-09-18T14:13:37.424Z,20.81
2022-09-18T14:16:15.809Z,20.79
2022-09-18T14:18:48.217Z,20.94
2022-09-18T14:21:17.645Z,21.24
2022-09-18T14:23:47.300Z,21.39
2022-09-18T14:26:38.938Z,21.21
2022-09-18T14:29:11.127Z,20.64
2022-09-18T14:31:44.830Z,20.57
2022-09-18T14:34:17.313Z,20.33
2022-09-18T14:36:49.205Z,20.00
2022-09-18T14:39:35.632Z,19.81
2022-09-18T14:42:12.588Z,19.69
2022-09-18T14:44:39.876Z,19.59
2022-09-18T14:47:08.928Z,19.33
2022-09-18T14:49:41.082Z,19.24
2022-09-18T14:52:27.071Z,19.32
2022-09-18T14:54:57.301Z,19.29
2022-09-18T14:57:27.622Z,19.01
2022-09-18T14:59:56.979Z,19.03
2022-09-18T15:02:36.525Z,18.82
2022-09-18T15:05:10.552Z,18.96
2022-09-18T15:07:40.838Z,19.17
2022-09-18T15:10:09.602Z,18.85
2022-09-18T15:12:37.048Z,18.86
2022-09-18T15:15:24.797Z,18.85
2022-09-18T15:17:57.206Z,18.76
2022-09-18T15:20:25.294Z,18.78
2022-09-18T15:22:53.504Z,18.69
2022-09-18T15:25:31.097Z,18.78
2022-09-18T15:28:02.822Z,18.59
2022-09-18T15:30:30.070Z,18.46
2022-09-18T15:33:00.940Z,18.61
2022-09-18T15:35:34.802Z,18.42
2022-09-18T15:38:05.043Z,18.15
2022-09-18T15:40:37.521Z,18.07
2022-09-18T15:43:06.876Z,17.96
2022-09-18T15:45:35.467Z,17.86
2022-09-18T15:48:33.976Z,17.84
2022-09-18T15:51:17.263Z,18.00
2022-09-18T15:54:05.874Z,17.70
2022-09-18T15:56:36.673Z,17.60
2022-09-18T15:59:06.733Z,17.62
2022-09-18T16:01:39.802Z,17.60
2022-09-18T16:04:24.696Z,17.51
2022-09-18T16:07:14.458Z,17.42
2022-09-18T16:09:44.011Z,17.50
2022-09-18T16:12:42.939Z,17.63
2022-09-18T16:15:23.647Z,17.56
2022-09-18T16:17:54.286Z,17.62
2022-09-18T16:20:20.937Z,17.61
2022-09-18T16:22:48.404Z,17.65
2022-09-18T16:25:25.832Z,17.55
2022-09-18T16:27:55.956Z,17.54
2022-09-18T16:30:23.585Z,17.40
2022-09-18T16:32:50.067Z,17.39
2022-09-18T16:35:16.689Z,17.36
2022-09-18T16:37:44.004Z,17.25
2022-09-18T16:40:17.615Z,17.23
2022-09-18T16:42:44.399Z,17.16
2022-09-18T16:45:11.630Z,17.06
2022-09-18T16:47:44.804Z,17.05
2022-09-18T16:50:11.576Z,17.05
2022-09-18T16:52:37.991Z,17.09
2022-09-18T16:55:05.330Z,16.99
2022-09-18T16:57:32.123Z,16.93
2022-09-18T17:00:01.763Z,16.82
2022-09-18T17:02:28.477Z,16.89
2022-09-18T17:04:55.908Z,16.75
2022-09-18T17:07:22.394Z,16.84
2022-09-18T17:09:48.874Z,16.96
2022-09-18T17:12:15.326Z,17.02
2022-09-18T17:14:41.760Z,17.06
2022-09-18T17:17:08.280Z,16.97
2022-09-18T17:19:35.290Z,17.11
2022-09-18T17:22:01.783Z,16.92
2022-09-18T17:24:28.233Z,17.07
2022-09-18T17:26:54.949Z,16.98
2022-09-18T17:29:21.627Z,16.94
2022-09-18T17:31:48.110Z,16.87
2022-09-18T17:34:16.565Z,16.98
2022-09-18T17:36:43.053Z,16.99
2022-09-18T17:39:09.576Z,16.87
2022-09-18T17:41:36.109Z,16.75
2022-09-18T17:44:03.197Z,16.57
2022-09-18T17:46:29.719Z,16.44
2022-09-18T17:48:58.131Z,16.34
2022-09-18T17:51:28.676Z,16.34
2022-09-18T17:54:03.182Z,16.31
2022-09-18T17:56:31.675Z,16.37
2022-09-18T17:59:11.660Z,16.25
2022-09-18T18:01:43.403Z,16.26
2022-09-18T18:04:09.880Z,16.25
2022-09-18T18:06:37.013Z,16.22
2022-09-18T18:09:06.341Z,16.11
2022-09-18T18:11:33.260Z,16.04
2022-09-18T18:14:00.314Z,15.98
2022-09-18T18:16:30.575Z,15.89
2022-09-18T18:19:01.191Z,15.87
2022-09-18T18:21:28.900Z,15.79
2022-09-18T18:23:59.977Z,15.84
2022-09-18T18:26:28.050Z,15.80
2022-09-18T18:28:57.547Z,15.78
2022-09-18T18:31:27.850Z,15.81
2022-09-18T18:33:56.779Z,15.76
2022-09-18T18:36:28.606Z,15.72
2022-09-18T18:38:57.687Z,15.73
2022-09-18T18:41:26.398Z,15.73
2022-09-18T18:43:55.540Z,15.77
2022-09-18T18:46:27.327Z,15.79
2022-09-18T18:49:01.747Z,15.77
2022-09-18T18:51:31.912Z,15.67
2022-09-18T18:54:02.824Z,15.51
2022-09-18T18:56:34.853Z,15.45
2022-09-18T18:59:02.617Z,15.44
2022-09-18T19:01:31.044Z,15.47
2022-09-18T19:04:04.316Z,15.46
2022-09-18T19:06:31.344Z,15.49
2022-09-18T19:09:03.184Z,15.44
2022-09-18T19:11:33.790Z,15.41
2022-09-18T19:14:00.463Z,15.42
2022-09-18T19:16:29.026Z,15.46
2022-09-18T19:18:59.737Z,15.40
2022-09-18T19:21:27.846Z,15.50
2022-09-18T19:23:56.768Z,15.50
2022-09-18T19:26:24.896Z,15.58
2022-09-18T19:28:53.266Z,15.56
2022-09-18T19:31:20.761Z,15.52
2022-09-18T19:33:52.370Z,15.55
2022-09-18T19:36:20.710Z,15.49
2022-09-18T19:38:54.637Z,15.45
2022-09-18T19:41:41.068Z,15.48
2022-09-18T19:44:15.750Z,15.50
2022-09-18T19:46:42.433Z,15.51
2022-09-18T19:49:16.403Z,15.51
2022-09-18T19:51:42.866Z,15.52
2022-09-18T19:54:09.342Z,15.46
2022-09-18T19:56:42.909Z,15.48
2022-09-18T19:59:10.382Z,15.45
2022-09-18T20:01:36.936Z,15.45
2022-09-18T20:04:03.724Z,15.44
2022-09-18T20:06:32.484Z,15.50
2022-09-18T20:08:59.648Z,15.48
2022-09-18T20:11:26.317Z,15.40
2022-09-18T20:13:53.580Z,15.35
2022-09-18T20:16:21.083Z,15.38
2022-09-18T20:18:48.085Z,15.39
2022-09-18T20:21:17.857Z,15.42
2022-09-18T20:23:44.827Z,15.42
2022-09-18T20:26:14.751Z,15.38
2022-09-18T20:28:41.376Z,15.41
2022-09-18T20:31:12.123Z,15.39
2022-09-18T20:33:38.637Z,15.37
2022-09-18T20:36:09.653Z,15.28
2022-09-18T20:38:38.452Z,15.39
2022-09-18T20:41:12.773Z,15.24
2022-09-18T20:43:41.770Z,15.19
2022-09-18T20:46:15.695Z,15.23
2022-09-18T20:48:46.416Z,15.32
2022-09-18T20:51:15.371Z,15.21
2022-09-18T20:53:43.648Z,15.23
2022-09-18T20:56:12.821Z,15.17
2022-09-18T20:58:42.121Z,15.17
2022-09-18T21:01:13.945Z,15.15
2022-09-18T21:03:44.710Z,15.18
2022-09-18T21:06:22.921Z,15.18
2022-09-18T21:08:53.333Z,15.09
2022-09-18T21:11:25.721Z,15.11
2022-09-18T21:13:54.305Z,15.13
2022-09-18T21:16:22.406Z,15.02
2022-09-18T21:18:49.904Z,15.00
2022-09-18T21:21:17.290Z,15.06
2022-09-18T21:23:53.281Z,14.99
2022-09-18T21:26:28.604Z,15.09
2022-09-18T21:29:07.201Z,15.09
2022-09-18T21:31:42.456Z,15.11
2022-09-18T21:34:12.004Z,15.13
2022-09-18T21:36:38.823Z,15.07
2022-09-18T21:39:08.953Z,15.08
2022-09-18T21:41:39.270Z,15.02
2022-09-18T21:44:08.743Z,14.98
2022-09-18T21:46:37.992Z,15.12
2022-09-18T21:49:06.808Z,15.15
2022-09-18T21:51:35.214Z,15.14
2022-09-18T21:54:03.488Z,15.10
2022-09-18T21:56:30.028Z,15.07
2022-09-18T21:58:56.641Z,15.11
2022-09-18T22:01:27.113Z,15.07
2022-09-18T22:03:56.200Z,15.11
2022-09-18T22:06:25.955Z,15.11
2022-09-18T22:08:55.015Z,15.04
2022-09-18T22:11:27.639Z,15.00
2022-09-18T22:13:56.108Z,14.88
2022-09-18T22:16:32.114Z,14.91
2022-09-18T22:18:59.046Z,14.84
2022-09-18T22:21:28.962Z,14.87
2022-09-18T22:23:58.269Z,14.90
2022-09-18T22:26:27.097Z,14.93
2022-09-18T22:28:56.494Z,14.94
2022-09-18T22:31:24.687Z,14.93
2022-09-18T22:33:57.620Z,14.90
2022-09-18T22:36:25.557Z,14.88
2022-09-18T22:38:53.279Z,14.79
2022-09-18T22:41:20.374Z,14.75
2022-09-18T22:43:47.501Z,14.70
2022-09-18T22:46:16.478Z,14.66
2022-09-18T22:48:43.557Z,14.60
2022-09-18T22:51:14.240Z,14.59
2022-09-18T22:53:46.712Z,14.57
2022-09-18T22:56:14.762Z,14.53
2022-09-18T22:58:41.934Z,14.42
2022-09-18T23:01:13.561Z,14.42
2022-09-18T23:03:40.340Z,14.43
2022-09-18T23:06:09.802Z,14.38
2022-09-18T23:08:37.300Z,14.32
2022-09-18T23:11:16.000Z,14.30
2022-09-18T23:13:47.669Z,14.35
2022-09-18T23:16:14.504Z,14.29
2022-09-18T23:18:41.921Z,14.31
2022-09-18T23:21:14.081Z,14.28
2022-09-18T23:23:46.915Z,14.23
2022-09-18T23:26:16.312Z,14.19
2022-09-18T23:28:44.501Z,14.16
2022-09-18T23:31:19.327Z,14.22
2022-09-18T23:33:54.554Z,14.23
2022-09-18T23:36:23.942Z,14.13
2022-09-18T23:38:55.847Z,14.08
2022-09-18T23:41:22.617Z,14.07
2022-09-18T23:43:51.490Z,14.11
2022-09-18T23:46:18.788Z,14.12
2022-09-18T23:48:47.376Z,14.25
2022-09-18T23:51:16.139Z,14.32
2022-09-18T23:53:42.604Z,14.29
2022-09-18T23:56:14.133Z,14.21
2022-09-18T23:58:41.921Z,14.21
